首页
METAR-TAF:

METAR-TAF

机场 :

士乃国际机场

新山, 马来西亚

纬度: 01-38N, 经度: 103-40E, 海拔: 37米

当前天气观测

该预报发布于1小时和17分钟前的15:00 UTC
静风
温度 25°C
湿度 94%
气压 1011 hPa
能见度10公里或以上
少量云层高于2200英尺
多云层高于30000英尺

METAR: WMKJ 131500Z 00000KT 9999 FEW022 BKN300 25/24 Q1011

时间: 00:17 (16:17 UTC)

预报

该预报发布于5小时和17分钟前的11:00 UTC
预报有效从13日的 12点(UTC)到 14日的 12点(UTC)
风速3节,风向多变
能见度10公里或以上
少量云层高于1000英尺
少量云层高于1700英尺, 积雨云.
成为
从 13日的 21点(UTC)到 13日的 23点(UTC)
能見度: 3000
少量云层高于800英尺
轻雾
成为
从 14日的 00点(UTC)到 14日的 02点(UTC)
风速5节,风向西
能见度10公里或以上
少量云层高于1000英尺
少量云层高于1700英尺, 积雨云.

TAF: WMKJ 131100Z 1312/1412 VRB03KT 9999 FEW010 FEW017CB BECMG 1321/1323 3000 BR FEW008 BECMG 1400/1402 28005KT 9999 FEW010 FEW017CB

超过4000个机场的气象观测和天气预报(METAR&TAF报告)。

可查询的气象台以黄色和红色小点在地图上表示。

将鼠标移到小点上方,可查看气象台名称。

然后点击查看天气观测和预报。

如需切换地图:点击带黑十字的绿色按钮放大地图;点击带横线的绿色按钮缩小地图;或者点击绿色箭头查看邻近地区的地图。


METAR-TAF: